Latest Weather Observations for Wattamolla

IDN60801

Issued at 10:42 am EDT Wednesday 16 January 2019 (issued every 10 minutes, with the page automatically refreshed every 10 minutes)

About weather observations | Map of weather stations | Latest weather observations for NSW | Other Formats
Station Details ID: 066208 Name: WATTAMOLLA AWS Lat: -34.14 Lon: 151.12 Height: 44.0 m
Data from the previous 72 hours. | See also: Recent months at Wattamolla
Date/Time
EDT
Temp
°C
App
Temp
°C
Dew
Point
°C
Rel
Hum
%
Delta-T
°C
Wind Press
QNH
hPa
Press
MSL
hPa
Rain since
9am
mm
Dir  Spd
km/h
Gust
km/h
Spd
kts
Gust
kts
16/10:30am - - - - - S 15 20 8 11 - - -
16/10:00am - - - - - S 11 17 6 9 - - -
16/09:30am - - - - - S 11 15 6 8 - - -
16/09:00am - - - - - SSW 15 19 8 10 - - -
16/08:30am - - - - - S 11 17 6 9 - - -
16/08:00am - - - - - S 11 15 6 8 - - -
16/07:30am - - - - - S 11 13 6 7 - - -
16/07:00am - - - - - S 9 11 5 6 - - -
16/06:30am - - - - - SSW 9 11 5 6 - - -
16/06:00am - - - - - SSW 9 13 5 7 - - -
16/05:30am - - - - - CALM 0 0 0 0 - - -
16/05:00am - - - - - CALM 0 6 0 3 - - -
16/04:30am - - - - - NNW 6 9 3 5 - - -
16/04:00am - - - - - NNE 7 11 4 6 - - -
16/03:30am - - - - - N 11 15 6 8 - - -
16/03:00am - - - - - NNE 13 19 7 10 - - -
16/02:30am - - - - - NNE 15 22 8 12 - - -
16/02:00am - - - - - NNE 15 20 8 11 - - -
16/01:30am - - - - - N 17 24 9 13 - - -
16/01:00am - - - - - NNE 9 13 5 7 - - -
16/12:30am - - - - - NNE 13 17 7 9 - - -
16/12:00am - - - - - N 13 20 7 11 - - -
 
Date/Time
EDT
Temp
°C
App
Temp
°C
Dew
Point
°C
Rel
Hum
%
Delta-T
°C
Wind Press
QNH
hPa
Press
MSL
hPa
Rain since
9am
mm
Dir  Spd
km/h
Gust
km/h
Spd
kts
Gust
kts
15/11:30pm - - - - - N 13 17 7 9 - - -
15/11:00pm - - - - - NNE 13 17 7 9 - - -
15/10:30pm - - - - - N 13 17 7 9 - - -
15/10:00pm - - - - - N 17 24 9 13 - - -
15/09:30pm - - - - - N 26 35 14 19 - - -
15/09:00pm - - - - - NNE 33 48 18 26 - - -
15/08:30pm - - - - - NNE 30 44 16 24 - - -
15/08:00pm - - - - - NNE 30 41 16 22 - - -
15/07:30pm - - - - - NNE 32 54 17 29 - - -
15/07:01pm - - - - - NNE 35 54 19 29 - - -
15/07:00pm - - - - - NNE 37 54 20 29 - - -
15/06:30pm - - - - - NNE 35 56 19 30 - - -
15/06:11pm - - - - - NNE 35 54 19 29 - - -
15/06:00pm - - - - - NNE 39 56 21 30 - - -
15/05:54pm - - - - - NNE 37 56 20 30 - - -
15/05:30pm - - - - - NNE 35 52 19 28 - - -
15/05:00pm - - - - - NNE 30 48 16 26 - - -
15/04:41pm - - - - - NNE 28 46 15 25 - - -
15/04:30pm - - - - - NNE 30 43 16 23 - - -
15/04:10pm - - - - - NNE 28 48 15 26 - - -
15/04:00pm - - - - - NNE 22 33 12 18 - - -
15/03:30pm - - - - - NE 22 33 12 18 - - -
15/03:00pm - - - - - NE 22 33 12 18 - - -
15/02:30pm - - - - - NE 26 35 14 19 - - -
15/02:00pm - - - - - NE 28 39 15 21 - - -
15/01:30pm - - - - - NE 26 33 14 18 - - -
15/01:00pm - - - - - NE 26 33 14 18 - - -
15/12:30pm - - - - - NE 24 33 13 18 - - -
15/12:00pm - - - - - NE 26 33 14 18 - - -
15/11:30am - - - - - NE 24 33 13 18 - - -
15/11:00am - - - - - NE 26 35 14 19 - - -
15/10:30am - - - - - NE 22 33 12 18 - - -
15/10:00am - - - - - NE 20 30 11 16 - - -
15/09:30am - - - - - N 19 28 10 15 - - -
15/09:00am - - - - - NNE 15 22 8 12 - - -
15/08:30am - - - - - N 20 30 11 16 - - -
15/08:00am - - - - - N 22 30 12 16 - - -
15/07:30am - - - - - N 22 32 12 17 - - -
15/07:00am - - - - - N 13 17 7 9 - - -
15/06:30am - - - - - N 13 15 7 8 - - -
15/06:00am - - - - - NNE 15 22 8 12 - - -
15/05:30am - - - - - NNE 15 19 8 10 - - -
15/05:00am - - - - - N 15 19 8 10 - - -
15/04:30am - - - - - N 11 15 6 8 - - -
15/04:00am - - - - - N 19 28 10 15 - - -
15/03:30am - - - - - NNE 19 28 10 15 - - -
15/03:00am - - - - - NNE 13 19 7 10 - - -
15/02:30am - - - - - NNE 15 20 8 11 - - -
15/02:00am - - - - - N 13 17 7 9 - - -
15/01:30am - - - - - NNE 15 20 8 11 - - -
15/01:00am - - - - - N 11 15 6 8 - - -
15/12:30am - - - - - NNE 13 19 7 10 - - -
15/12:00am - - - - - N 19 28 10 15 - - -
 
Date/Time
EDT
Temp
°C
App
Temp
°C
Dew
Point
°C
Rel
Hum
%
Delta-T
°C
Wind Press
QNH
hPa
Press
MSL
hPa
Rain since
9am
mm
Dir  Spd
km/h
Gust
km/h
Spd
kts
Gust
kts
14/11:30pm - - - - - NNE 20 26 11 14 - - -
14/11:00pm - - - - - NNE 22 33 12 18 - - -
14/10:30pm - - - - - N 28 35 15 19 - - -
14/10:00pm - - - - - NNE 28 35 15 19 - - -
14/09:30pm - - - - - N 30 39 16 21 - - -
14/09:00pm - - - - - NNE 28 41 15 22 - - -
14/08:30pm - - - - - N 32 46 17 25 - - -
14/08:00pm - - - - - N 28 39 15 21 - - -
14/07:30pm - - - - - NNE 28 39 15 21 - - -
14/07:00pm - - - - - NNE 26 37 14 20 - - -
14/06:30pm - - - - - NNE 22 35 12 19 - - -
14/06:00pm - - - - - NNE 24 41 13 22 - - -
14/05:53pm - - - - - NNE 28 46 15 25 - - -
14/05:30pm - - - - - NNE 28 41 15 22 - - -
14/05:12pm - - - - - NE 28 46 15 25 - - -
14/05:00pm - - - - - NE 28 41 15 22 - - -
14/04:30pm - - - - - NE 30 41 16 22 - - -
14/04:00pm - - - - - NE 30 43 16 23 - - -
14/03:30pm - - - - - NE 28 37 15 20 - - -
14/03:00pm - - - - - NE 28 37 15 20 - - -
14/02:30pm - - - - - NE 28 37 15 20 - - -
14/02:00pm - - - - - NE 26 39 14 21 - - -
14/01:30pm - - - - - NE 24 33 13 18 - - -
14/01:00pm - - - - - NE 20 30 11 16 - - -
14/12:30pm - - - - - ENE 17 24 9 13 - - -
14/12:00pm - - - - - ENE 17 24 9 13 - - -
14/11:30am - - - - - NE 20 28 11 15 - - -
14/11:00am - - - - - ENE 17 20 9 11 - - -
14/10:30am - - - - - NNE 13 20 7 11 - - -
14/10:00am - - - - - NNW 17 24 9 13 - - -
14/09:30am - - - - - NNW 11 17 6 9 - - -
14/09:00am - - - - - NNW 13 19 7 10 - - -
14/08:30am - - - - - N 11 15 6 8 - - -
14/08:00am - - - - - N 9 13 5 7 - - -
14/07:30am - - - - - WNW 11 15 6 8 - - -
14/07:00am - - - - - NW 9 13 5 7 - - -
14/06:30am - - - - - NW 9 11 5 6 - - -
14/06:00am - - - - - S 7 11 4 6 - - -
14/05:30am - - - - - SSE 13 15 7 8 - - -
14/05:00am - - - - - S 13 15 7 8 - - -
14/04:30am - - - - - SSE 13 15 7 8 - - -
14/04:00am - - - - - S 15 17 8 9 - - -
14/03:30am - - - - - SSE 17 20 9 11 - - -
14/03:00am - - - - - SSE 17 19 9 10 - - -
14/02:30am - - - - - S 17 19 9 10 - - -
14/02:00am - - - - - S 17 19 9 10 - - -
14/01:30am - - - - - S 13 17 7 9 - - -
14/01:00am - - - - - S 15 19 8 10 - - -
14/12:30am - - - - - S 20 26 11 14 - - -
14/12:00am - - - - - S 15 20 8 11 - - -
 
Date/Time
EDT
Temp
°C
App
Temp
°C
Dew
Point
°C
Rel
Hum
%
Delta-T
°C
Wind Press
QNH
hPa
Press
MSL
hPa
Rain since
9am
mm
Dir  Spd
km/h
Gust
km/h
Spd
kts
Gust
kts
13/11:30pm - - - - - SSE 17 24 9 13 - - -
13/11:00pm - - - - - S 19 22 10 12 - - -
13/10:30pm - - - - - S 24 28 13 15 - - -
13/10:00pm - - - - - S 26 30 14 16 - - -
13/09:30pm - - - - - S 28 32 15 17 - - -
13/09:00pm - - - - - S 28 32 15 17 - - -
13/08:30pm - - - - - S 28 33 15 18 - - -
13/08:00pm - - - - - S 28 30 15 16 - - -
13/07:30pm - - - - - S 30 33 16 18 - - -
13/07:00pm - - - - - S 32 35 17 19 - - -
13/06:30pm - - - - - S 32 37 17 20 - - -
13/06:00pm - - - - - S 35 39 19 21 - - -
13/05:30pm - - - - - S 33 37 18 20 - - -
13/05:00pm - - - - - S 35 39 19 21 - - -
13/04:30pm - - - - - S 37 41 20 22 - - -
13/04:00pm - - - - - S 41 46 22 25 - - -
13/03:30pm - - - - - S 37 44 20 24 - - -
13/03:00pm - - - - - SSE 37 46 20 25 - - -
13/02:30pm - - - - - SSE 39 48 21 26 - - -
13/02:00pm - - - - - S 39 46 21 25 - - -
13/01:30pm - - - - - S 37 44 20 24 - - -
13/01:00pm - - - - - S 39 44 21 24 - - -
13/12:30pm - - - - - S 41 50 22 27 - - -
13/12:00pm - - - - - S 41 48 22 26 - - -
13/11:30am - - - - - S 46 54 25 29 - - -
13/11:00am - - - - - S 48 54 26 29 - - -

Other Formats:

Comma delimited format used in spreadsheet applications
http://www.bom.gov.au/fwo/IDN60801/IDN60801.95752.axf

JavaScript Object Notation format (JSON) in row-major order
http://www.bom.gov.au/fwo/IDN60801/IDN60801.95752.json